sensor_id;sensor_type;location;lat;lon;timestamp;pressure;altitude;pressure_sealevel;temperature;humidity
10940;BME280;5522;42.696;23.494;2022-09-13T00:01:15;53789.47;;;-139.68;100.00
10940;BME280;5522;42.696;23.494;2022-09-13T00:03:42;53797.53;;;-139.68;100.00
10940;BME280;5522;42.696;23.494;2022-09-13T00:06:11;53775.41;;;-139.68;100.00
10940;BME280;5522;42.696;23.494;2022-09-13T00:08:40;53757.31;;;-139.68;100.00
10940;BME280;5522;42.696;23.494;2022-09-13T00:11:14;53799.53;;;-139.68;100.00
10940;BME280;5522;42.696;23.494;2022-09-13T00:13:42;53777.41;;;-139.68;100.00
10940;BME280;5522;42.696;23.494;2022-09-13T00:16:11;53789.47;;;-139.68;100.00
10940;BME280;5522;42.696;23.494;2022-09-13T00:18:38;53791.50;;;-139.68;100.00
10940;BME280;5522;42.696;23.494;2022-09-13T00:21:06;53765.34;;;-139.68;100.00
10940;BME280;5522;42.696;23.494;2022-09-13T00:23:34;53765.34;;;-139.68;100.00
10940;BME280;5522;42.696;23.494;2022-09-13T00:26:07;53793.50;;;-139.68;100.00
10940;BME280;5522;42.696;23.494;2022-09-13T00:28:34;53787.47;;;-139.68;100.00
10940;BME280;5522;42.696;23.494;2022-09-13T00:31:02;53765.34;;;-139.68;100.00
10940;BME280;5522;42.696;23.494;2022-09-13T00:33:30;53767.38;;;-139.68;100.00
10940;BME280;5522;42.696;23.494;2022-09-13T00:35:57;53783.44;;;-139.68;100.00
10940;BME280;5522;42.696;23.494;2022-09-13T00:38:23;53813.59;;;-139.68;100.00
10940;BME280;5522;42.696;23.494;2022-09-13T00:40:50;53803.56;;;-139.68;100.00
10940;BME280;5522;42.696;23.494;2022-09-13T00:43:20;53819.63;;;-139.68;100.00
10940;BME280;5522;42.696;23.494;2022-09-13T00:45:47;53797.53;;;-139.68;100.00
10940;BME280;5522;42.696;23.494;2022-09-13T00:48:18;53783.44;;;-139.68;100.00
10940;BME280;5522;42.696;23.494;2022-09-13T00:50:50;53795.50;;;-139.68;100.00
10940;BME280;5522;42.696;23.494;2022-09-13T00:53:21;53759.31;;;-139.68;100.00
10940;BME280;5522;42.696;23.494;2022-09-13T00:55:54;53749.28;;;-139.68;100.00
10940;BME280;5522;42.696;23.494;2022-09-13T00:58:27;53747.25;;;-139.68;100.00
10940;BME280;5522;42.696;23.494;2022-09-13T01:09:15;53771.38;;;-139.68;100.00
10940;BME280;5522;42.696;23.494;2022-09-13T01:11:46;53775.41;;;-139.68;100.00
10940;BME280;5522;42.696;23.494;2022-09-13T01:14:18;53759.31;;;-139.68;100.00
10940;BME280;5522;42.696;23.494;2022-09-13T01:16:46;53747.25;;;-139.68;100.00
10940;BME280;5522;42.696;23.494;2022-09-13T01:19:13;53805.56;;;-139.68;100.00
10940;BME280;5522;42.696;23.494;2022-09-13T01:22:09;53777.41;;;-139.68;100.00
10940;BME280;5522;42.696;23.494;2022-09-13T01:28:11;53785.47;;;-139.68;100.00
10940;BME280;5522;42.696;23.494;2022-09-13T01:30:46;53755.31;;;-139.68;100.00
10940;BME280;5522;42.696;23.494;2022-09-13T01:33:28;53763.34;;;-139.68;100.00
10940;BME280;5522;42.696;23.494;2022-09-13T01:36:13;53787.47;;;-139.68;100.00
10940;BME280;5522;42.696;23.494;2022-09-13T01:38:53;53789.47;;;-139.68;100.00
10940;BME280;5522;42.696;23.494;2022-09-13T01:41:37;53797.53;;;-139.68;100.00
10940;BME280;5522;42.696;23.494;2022-09-13T01:44:14;53779.44;;;-139.68;100.00
10940;BME280;5522;42.696;23.494;2022-09-13T01:46:51;53797.53;;;-139.68;100.00
10940;BME280;5522;42.696;23.494;2022-09-13T01:49:25;53761.34;;;-139.68;100.00
10940;BME280;5522;42.696;23.494;2022-09-13T01:52:00;53773.41;;;-139.68;100.00
10940;BME280;5522;42.696;23.494;2022-09-13T01:54:35;53803.56;;;-139.68;100.00
10940;BME280;5522;42.696;23.494;2022-09-13T01:57:11;53767.38;;;-139.68;100.00
10940;BME280;5522;42.696;23.494;2022-09-13T01:59:44;53735.19;;;-139.68;100.00
10940;BME280;5522;42.696;23.494;2022-09-13T02:02:17;53755.31;;;-139.68;100.00
10940;BME280;5522;42.696;23.494;2022-09-13T02:04:49;53773.41;;;-139.68;100.00
10940;BME280;5522;42.696;23.494;2022-09-13T02:07:21;53791.50;;;-139.68;100.00
10940;BME280;5522;42.696;23.494;2022-09-13T02:10:19;53793.50;;;-139.68;100.00
10940;BME280;5522;42.696;23.494;2022-09-13T02:12:50;53747.25;;;-139.68;100.00
10940;BME280;5522;42.696;23.494;2022-09-13T02:15:20;53761.34;;;-139.68;100.00
10940;BME280;5522;42.696;23.494;2022-09-13T02:17:54;53773.41;;;-139.68;100.00
10940;BME280;5522;42.696;23.494;2022-09-13T02:20:28;53739.22;;;-139.68;100.00
10940;BME280;5522;42.696;23.494;2022-09-13T02:23:00;53799.53;;;-139.68;100.00
10940;BME280;5522;42.696;23.494;2022-09-13T02:25:30;53753.28;;;-139.68;100.00
10940;BME280;5522;42.696;23.494;2022-09-13T02:28:02;53761.34;;;-139.68;100.00
10940;BME280;5522;42.696;23.494;2022-09-13T02:30:34;53791.50;;;-139.68;100.00
10940;BME280;5522;42.696;23.494;2022-09-13T02:33:09;53771.38;;;-139.68;100.00
10940;BME280;5522;42.696;23.494;2022-09-13T02:35:41;53771.38;;;-139.68;100.00
10940;BME280;5522;42.696;23.494;2022-09-13T02:38:15;53799.53;;;-139.68;100.00
10940;BME280;5522;42.696;23.494;2022-09-13T02:40:55;53751.28;;;-139.68;100.00
10940;BME280;5522;42.696;23.494;2022-09-13T02:43:27;53771.38;;;-139.68;100.00
10940;BME280;5522;42.696;23.494;2022-09-13T02:46:04;53801.53;;;-139.68;100.00
10940;BME280;5522;42.696;23.494;2022-09-13T02:48:46;53799.53;;;-139.68;100.00
10940;BME280;5522;42.696;23.494;2022-09-13T02:51:20;53817.63;;;-139.68;100.00
10940;BME280;5522;42.696;23.494;2022-09-13T02:53:54;53809.59;;;-139.68;100.00
10940;BME280;5522;42.696;23.494;2022-09-13T02:56:31;53761.34;;;-139.68;100.00
10940;BME280;5522;42.696;23.494;2022-09-13T02:59:05;53785.47;;;-139.68;100.00
10940;BME280;5522;42.696;23.494;2022-09-13T03:01:35;53799.53;;;-139.68;100.00
10940;BME280;5522;42.696;23.494;2022-09-13T03:04:04;53793.50;;;-139.68;100.00
10940;BME280;5522;42.696;23.494;2022-09-13T03:06:32;53729.16;;;-139.68;100.00
10940;BME280;5522;42.696;23.494;2022-09-13T03:09:01;53791.50;;;-139.68;100.00
10940;BME280;5522;42.696;23.494;2022-09-13T03:11:40;53771.38;;;-139.68;100.00
10940;BME280;5522;42.696;23.494;2022-09-13T03:14:18;53783.44;;;-139.68;100.00
10940;BME280;5522;42.696;23.494;2022-09-13T03:17:03;53755.31;;;-139.68;100.00
10940;BME280;5522;42.696;23.494;2022-09-13T03:19:47;53795.50;;;-139.68;100.00
10940;BME280;5522;42.696;23.494;2022-09-13T03:22:43;53755.31;;;-139.68;100.00
10940;BME280;5522;42.696;23.494;2022-09-13T03:25:19;53783.44;;;-139.68;100.00
10940;BME280;5522;42.696;23.494;2022-09-13T03:27:57;53751.28;;;-139.68;100.00
10940;BME280;5522;42.696;23.494;2022-09-13T03:30:27;53719.13;;;-139.68;100.00
10940;BME280;5522;42.696;23.494;2022-09-13T03:32:59;53775.41;;;-139.68;100.00
10940;BME280;5522;42.696;23.494;2022-09-13T03:35:35;53747.25;;;-139.68;100.00
10940;BME280;5522;42.696;23.494;2022-09-13T03:38:07;53739.22;;;-139.68;100.00
10940;BME280;5522;42.696;23.494;2022-09-13T03:40:37;53759.31;;;-139.68;100.00
10940;BME280;5522;42.696;23.494;2022-09-13T03:43:10;53801.53;;;-139.68;100.00
10940;BME280;5522;42.696;23.494;2022-09-13T03:45:43;53771.38;;;-139.68;100.00
10940;BME280;5522;42.696;23.494;2022-09-13T03:48:10;53775.41;;;-139.68;100.00
10940;BME280;5522;42.696;23.494;2022-09-13T03:50:40;53753.28;;;-139.68;100.00
10940;BME280;5522;42.696;23.494;2022-09-13T03:53:09;53767.38;;;-139.68;100.00
10940;BME280;5522;42.696;23.494;2022-09-13T03:55:39;53773.41;;;-139.68;100.00
10940;BME280;5522;42.696;23.494;2022-09-13T03:58:09;53765.34;;;-139.68;100.00
10940;BME280;5522;42.696;23.494;2022-09-13T04:00:36;53817.63;;;-139.68;100.00
10940;BME280;5522;42.696;23.494;2022-09-13T04:03:02;53755.31;;;-139.68;100.00
10940;BME280;5522;42.696;23.494;2022-09-13T04:05:29;53785.47;;;-139.68;100.00
10940;BME280;5522;42.696;23.494;2022-09-13T04:07:59;53811.59;;;-139.68;100.00
10940;BME280;5522;42.696;23.494;2022-09-13T04:10:26;53773.41;;;-139.68;100.00
10940;BME280;5522;42.696;23.494;2022-09-13T04:12:53;53783.44;;;-139.68;100.00
10940;BME280;5522;42.696;23.494;2022-09-13T04:15:20;53779.44;;;-139.68;100.00
10940;BME280;5522;42.696;23.494;2022-09-13T04:17:47;53767.38;;;-139.68;100.00
10940;BME280;5522;42.696;23.494;2022-09-13T04:20:14;53753.28;;;-139.68;100.00
10940;BME280;5522;42.696;23.494;2022-09-13T04:22:41;53793.50;;;-139.68;100.00
10940;BME280;5522;42.696;23.494;2022-09-13T04:25:09;53759.31;;;-139.68;100.00
10940;BME280;5522;42.696;23.494;2022-09-13T04:27:36;53779.44;;;-139.68;100.00
10940;BME280;5522;42.696;23.494;2022-09-13T04:30:04;53763.34;;;-139.68;100.00
10940;BME280;5522;42.696;23.494;2022-09-13T04:32:30;53771.38;;;-139.68;100.00
10940;BME280;5522;42.696;23.494;2022-09-13T04:34:58;53799.53;;;-139.68;100.00
10940;BME280;5522;42.696;23.494;2022-09-13T04:37:25;53783.44;;;-139.68;100.00
10940;BME280;5522;42.696;23.494;2022-09-13T04:39:51;53783.44;;;-139.68;100.00
10940;BME280;5522;42.696;23.494;2022-09-13T04:42:20;53795.50;;;-139.68;100.00
10940;BME280;5522;42.696;23.494;2022-09-13T04:44:47;53779.44;;;-139.68;100.00
10940;BME280;5522;42.696;23.494;2022-09-13T04:47:14;53793.50;;;-139.68;100.00
10940;BME280;5522;42.696;23.494;2022-09-13T04:49:41;53773.41;;;-139.68;100.00
10940;BME280;5522;42.696;23.494;2022-09-13T04:52:08;53791.50;;;-139.68;100.00
10940;BME280;5522;42.696;23.494;2022-09-13T04:54:34;53795.50;;;-139.68;100.00
10940;BME280;5522;42.696;23.494;2022-09-13T04:57:02;53761.34;;;-139.68;100.00
10940;BME280;5522;42.696;23.494;2022-09-13T04:59:32;53775.41;;;-139.68;100.00
10940;BME280;5522;42.696;23.494;2022-09-13T05:01:58;53819.63;;;-139.68;100.00
10940;BME280;5522;42.696;23.494;2022-09-13T05:04:25;53817.63;;;-139.68;100.00
10940;BME280;5522;42.696;23.494;2022-09-13T05:06:52;53807.56;;;-139.68;97.95
10940;BME280;5522;42.696;23.494;2022-09-13T05:09:19;53871.91;;;-139.68;89.20
10940;BME280;5522;42.696;23.494;2022-09-13T05:11:46;53843.75;;;-139.68;83.20
10940;BME280;5522;42.696;23.494;2022-09-13T05:14:13;53875.94;;;-139.68;74.45
10940;BME280;5522;42.696;23.494;2022-09-13T05:16:41;53847.78;;;-139.68;67.30
10940;BME280;5522;42.696;23.494;2022-09-13T05:19:08;53811.59;;;-139.68;63.71
10940;BME280;5522;42.696;23.494;2022-09-13T05:21:35;53831.69;;;-139.68;59.13
10940;BME280;5522;42.696;23.494;2022-09-13T05:24:02;53807.56;;;-139.68;53.24
10940;BME280;5522;42.696;23.494;2022-09-13T05:26:30;53817.63;;;-139.68;51.05
10940;BME280;5522;42.696;23.494;2022-09-13T05:28:56;53835.72;;;-139.68;50.05
10940;BME280;5522;42.696;23.494;2022-09-13T05:31:25;53811.59;;;-139.68;49.92
10940;BME280;5522;42.696;23.494;2022-09-13T05:33:56;53799.53;;;-139.68;50.84
10940;BME280;5522;42.696;23.494;2022-09-13T05:36:24;53827.69;;;-139.68;50.50
10940;BME280;5522;42.696;23.494;2022-09-13T05:38:51;53851.81;;;-139.68;47.82
10940;BME280;5522;42.696;23.494;2022-09-13T05:41:18;53841.75;;;-139.68;44.73
10940;BME280;5522;42.696;23.494;2022-09-13T05:43:45;53841.75;;;-139.68;44.26
10940;BME280;5522;42.696;23.494;2022-09-13T05:46:13;53855.81;;;-139.68;45.10
10940;BME280;5522;42.696;23.494;2022-09-13T05:48:41;53861.84;;;-139.68;45.41
10940;BME280;5522;42.696;23.494;2022-09-13T05:51:11;53823.66;;;-139.68;46.32
10940;BME280;5522;42.696;23.494;2022-09-13T05:53:39;53863.88;;;-139.68;45.88
10940;BME280;5522;42.696;23.494;2022-09-13T05:56:06;53859.84;;;-139.68;46.04
10940;BME280;5522;42.696;23.494;2022-09-13T05:58:37;53898.03;;;-139.68;41.63
10940;BME280;5522;42.696;23.494;2022-09-13T06:01:05;53861.84;;;-139.68;40.86
10940;BME280;5522;42.696;23.494;2022-09-13T06:03:32;53859.84;;;-139.68;39.59
10940;BME280;5522;42.696;23.494;2022-09-13T06:05:59;53853.81;;;-139.68;40.34
10940;BME280;5522;42.696;23.494;2022-09-13T06:08:28;53859.84;;;-139.68;39.97
10940;BME280;5522;42.696;23.494;2022-09-13T06:10:56;53865.88;;;-139.68;40.53
10940;BME280;5522;42.696;23.494;2022-09-13T06:13:24;53898.03;;;-139.68;39.44
10940;BME280;5522;42.696;23.494;2022-09-13T06:15:52;53879.94;;;-139.68;38.63
10940;BME280;5522;42.696;23.494;2022-09-13T06:18:20;53857.84;;;-139.68;36.80
10940;BME280;5522;42.696;23.494;2022-09-13T06:20:47;53855.81;;;-139.68;36.84
10940;BME280;5522;42.696;23.494;2022-09-13T06:23:14;53861.84;;;-139.68;36.00
10940;BME280;5522;42.696;23.494;2022-09-13T06:25:43;53827.69;;;-139.68;36.14
10940;BME280;5522;42.696;23.494;2022-09-13T06:28:09;53851.81;;;-139.68;35.88
10940;BME280;5522;42.696;23.494;2022-09-13T06:30:36;53863.88;;;-139.68;36.91
10940;BME280;5522;42.696;23.494;2022-09-13T06:33:03;53883.97;;;-139.68;36.27
10940;BME280;5522;42.696;23.494;2022-09-13T06:35:30;53892.00;;;-139.68;37.52
10940;BME280;5522;42.696;23.494;2022-09-13T06:37:57;53843.75;;;-139.68;38.65
10940;BME280;5522;42.696;23.494;2022-09-13T06:40:24;53892.00;;;-139.68;37.62
10940;BME280;5522;42.696;23.494;2022-09-13T06:42:53;53871.91;;;-139.68;37.11
10940;BME280;5522;42.696;23.494;2022-09-13T06:45:19;53879.94;;;-139.68;35.86
10940;BME280;5522;42.696;23.494;2022-09-13T06:47:46;53871.91;;;-139.68;34.23
10940;BME280;5522;42.696;23.494;2022-09-13T06:50:13;53865.88;;;-139.68;33.18
10940;BME280;5522;42.696;23.494;2022-09-13T06:52:40;53904.06;;;-139.68;33.08
10940;BME280;5522;42.696;23.494;2022-09-13T06:55:08;53865.88;;;-139.68;34.16
10940;BME280;5522;42.696;23.494;2022-09-13T06:57:35;53833.72;;;-139.68;34.55
10940;BME280;5522;42.696;23.494;2022-09-13T07:00:04;53829.69;;;-139.68;33.84
10940;BME280;5522;42.696;23.494;2022-09-13T07:02:31;53904.06;;;-139.68;31.51
10940;BME280;5522;42.696;23.494;2022-09-13T07:04:58;53835.72;;;-139.68;31.73
10940;BME280;5522;42.696;23.494;2022-09-13T07:07:24;53892.00;;;-139.68;32.95
10940;BME280;5522;42.696;23.494;2022-09-13T07:09:51;53885.97;;;-139.68;32.90
10940;BME280;5522;42.696;23.494;2022-09-13T07:12:18;53908.09;;;-139.68;32.59
10940;BME280;5522;42.696;23.494;2022-09-13T07:14:45;53831.69;;;-139.68;33.34
10940;BME280;5522;42.696;23.494;2022-09-13T07:17:13;53908.09;;;-139.68;31.46
10940;BME280;5522;42.696;23.494;2022-09-13T07:19:40;53839.75;;;-139.68;31.69
10940;BME280;5522;42.696;23.494;2022-09-13T07:22:07;53859.84;;;-139.68;32.52
10940;BME280;5522;42.696;23.494;2022-09-13T07:24:34;53859.84;;;-139.68;32.77
10940;BME280;5522;42.696;23.494;2022-09-13T07:27:00;53875.94;;;-139.68;32.09
10940;BME280;5522;42.696;23.494;2022-09-13T07:29:28;53829.69;;;-139.68;30.27
10940;BME280;5522;42.696;23.494;2022-09-13T07:31:54;53831.69;;;-139.68;30.15
10940;BME280;5522;42.696;23.494;2022-09-13T07:34:25;53865.88;;;-139.68;31.18
10940;BME280;5522;42.696;23.494;2022-09-13T07:36:52;53853.81;;;-139.68;29.17
10940;BME280;5522;42.696;23.494;2022-09-13T07:39:19;53883.97;;;-139.68;29.85
10940;BME280;5522;42.696;23.494;2022-09-13T07:41:46;53896.03;;;-139.68;31.13
10940;BME280;5522;42.696;23.494;2022-09-13T07:44:13;53853.81;;;-139.68;29.02
10940;BME280;5522;42.696;23.494;2022-09-13T07:46:40;53857.84;;;-139.68;30.54
10940;BME280;5522;42.696;23.494;2022-09-13T07:49:08;53865.88;;;-139.68;30.37
10940;BME280;5522;42.696;23.494;2022-09-13T07:51:37;53871.91;;;-139.68;29.65
10940;BME280;5522;42.696;23.494;2022-09-13T07:54:06;53885.97;;;-139.68;31.93
10940;BME280;5522;42.696;23.494;2022-09-13T07:56:36;53888.00;;;-139.68;33.09
10940;BME280;5522;42.696;23.494;2022-09-13T07:59:05;53837.72;;;-139.68;32.70
10940;BME280;5522;42.696;23.494;2022-09-13T08:01:34;53936.22;;;-139.68;30.96
10940;BME280;5522;42.696;23.494;2022-09-13T08:04:03;53881.97;;;-139.68;31.46
10940;BME280;5522;42.696;23.494;2022-09-13T08:06:31;53877.94;;;-139.68;29.54
10940;BME280;5522;42.696;23.494;2022-09-13T08:09:00;53851.81;;;-139.68;29.38
10940;BME280;5522;42.696;23.494;2022-09-13T08:11:29;53863.88;;;-139.68;28.62
10940;BME280;5522;42.696;23.494;2022-09-13T08:13:57;53875.94;;;-139.68;28.82
10940;BME280;5522;42.696;23.494;2022-09-13T08:16:27;53847.78;;;-139.68;30.54
10940;BME280;5522;42.696;23.494;2022-09-13T08:18:55;53865.88;;;-139.68;31.61
10940;BME280;5522;42.696;23.494;2022-09-13T08:21:23;53898.03;;;-139.68;29.70
10940;BME280;5522;42.696;23.494;2022-09-13T08:23:53;53916.13;;;-139.68;30.22
10940;BME280;5522;42.696;23.494;2022-09-13T08:26:22;53904.06;;;-139.68;29.56
10940;BME280;5522;42.696;23.494;2022-09-13T08:28:54;53867.88;;;-139.68;29.16
10940;BME280;5522;42.696;23.494;2022-09-13T08:31:21;53888.00;;;-139.68;28.02
10940;BME280;5522;42.696;23.494;2022-09-13T08:33:48;53875.94;;;-139.68;28.97
10940;BME280;5522;42.696;23.494;2022-09-13T08:36:15;53855.81;;;-139.68;29.07
10940;BME280;5522;42.696;23.494;2022-09-13T08:38:45;53883.97;;;-139.68;28.04
10940;BME280;5522;42.696;23.494;2022-09-13T08:41:37;53865.88;;;-139.68;28.28
10940;BME280;5522;42.696;23.494;2022-09-13T08:44:15;53924.16;;;-139.68;31.09
10940;BME280;5522;42.696;23.494;2022-09-13T08:46:48;53900.06;;;-139.68;33.45
10940;BME280;5522;42.696;23.494;2022-09-13T08:49:18;53902.06;;;-139.68;35.06
10940;BME280;5522;42.696;23.494;2022-09-13T08:51:47;53892.00;;;-139.68;37.75
10940;BME280;5522;42.696;23.494;2022-09-13T08:54:17;53879.94;;;-139.68;37.13
10940;BME280;5522;42.696;23.494;2022-09-13T08:56:51;53837.72;;;-139.68;32.56
10940;BME280;5522;42.696;23.494;2022-09-13T08:59:31;53867.88;;;-139.68;31.03
10940;BME280;5522;42.696;23.494;2022-09-13T09:02:23;53888.00;;;-139.68;28.99
10940;BME280;5522;42.696;23.494;2022-09-13T09:04:57;53839.75;;;-139.68;28.16
10940;BME280;5522;42.696;23.494;2022-09-13T09:07:31;53847.78;;;-139.68;25.72
10940;BME280;5522;42.696;23.494;2022-09-13T09:10:03;53855.81;;;-139.68;24.08
10940;BME280;5522;42.696;23.494;2022-09-13T09:12:38;53867.88;;;-139.68;25.68
10940;BME280;5522;42.696;23.494;2022-09-13T09:15:13;53835.72;;;-139.68;25.01
10940;BME280;5522;42.696;23.494;2022-09-13T09:17:49;53853.81;;;-139.68;25.42
10940;BME280;5522;42.696;23.494;2022-09-13T09:20:29;53855.81;;;-139.68;26.03
10940;BME280;5522;42.696;23.494;2022-09-13T09:23:01;53883.97;;;-139.68;26.68
10940;BME280;5522;42.696;23.494;2022-09-13T09:25:30;53904.06;;;-139.68;27.27
10940;BME280;5522;42.696;23.494;2022-09-13T09:27:58;53883.97;;;-139.68;29.16
10940;BME280;5522;42.696;23.494;2022-09-13T09:30:37;53875.94;;;-139.68;30.03
10940;BME280;5522;42.696;23.494;2022-09-13T09:33:16;53879.94;;;-139.68;31.08
10940;BME280;5522;42.696;23.494;2022-09-13T09:35:55;53875.94;;;-139.68;31.28
10940;BME280;5522;42.696;23.494;2022-09-13T09:38:38;53904.06;;;-139.68;28.88
10940;BME280;5522;42.696;23.494;2022-09-13T09:41:12;53859.84;;;-139.68;27.20
10940;BME280;5522;42.696;23.494;2022-09-13T09:43:46;53837.72;;;-139.68;24.79
10940;BME280;5522;42.696;23.494;2022-09-13T09:46:22;53857.84;;;-139.68;24.30
10940;BME280;5522;42.696;23.494;2022-09-13T09:48:55;53811.59;;;-139.68;23.98
10940;BME280;5522;42.696;23.494;2022-09-13T09:51:23;53847.78;;;-139.68;24.53
10940;BME280;5522;42.696;23.494;2022-09-13T09:53:56;53855.81;;;-139.68;24.96
10940;BME280;5522;42.696;23.494;2022-09-13T09:56:29;53863.88;;;-139.68;24.97
10940;BME280;5522;42.696;23.494;2022-09-13T09:58:58;53855.81;;;-139.68;24.54
10940;BME280;5522;42.696;23.494;2022-09-13T10:01:29;53847.78;;;-139.68;23.21
10940;BME280;5522;42.696;23.494;2022-09-13T10:04:17;53843.75;;;-139.68;25.91
10940;BME280;5522;42.696;23.494;2022-09-13T10:06:45;53809.59;;;-139.68;26.17
10940;BME280;5522;42.696;23.494;2022-09-13T10:09:15;53855.81;;;-139.68;27.08
10940;BME280;5522;42.696;23.494;2022-09-13T10:11:45;53851.81;;;-139.68;26.12
10940;BME280;5522;42.696;23.494;2022-09-13T10:14:35;53871.91;;;-139.68;25.62
10940;BME280;5522;42.696;23.494;2022-09-13T10:17:08;53873.91;;;-139.68;25.47
10940;BME280;5522;42.696;23.494;2022-09-13T10:19:39;53879.94;;;-139.68;27.03
10940;BME280;5522;42.696;23.494;2022-09-13T10:22:10;53892.00;;;-139.68;26.68
10940;BME280;5522;42.696;23.494;2022-09-13T10:24:38;53904.06;;;-139.68;27.66
10940;BME280;5522;42.696;23.494;2022-09-13T10:27:29;53871.91;;;-139.68;28.88
10940;BME280;5522;42.696;23.494;2022-09-13T10:30:00;53881.97;;;-139.68;28.61
10940;BME280;5522;42.696;23.494;2022-09-13T10:32:28;53890.00;;;-139.68;30.67
10940;BME280;5522;42.696;23.494;2022-09-13T10:35:01;53881.97;;;-139.68;30.84
10940;BME280;5522;42.696;23.494;2022-09-13T10:37:29;53879.94;;;-139.68;30.62
10940;BME280;5522;42.696;23.494;2022-09-13T10:40:02;53867.88;;;-139.68;29.69
10940;BME280;5522;42.696;23.494;2022-09-13T10:42:32;53831.69;;;-139.68;30.51
10940;BME280;5522;42.696;23.494;2022-09-13T10:45:02;53867.88;;;-139.68;32.44
10940;BME280;5522;42.696;23.494;2022-09-13T10:47:32;53847.78;;;-139.68;31.54
10940;BME280;5522;42.696;23.494;2022-09-13T10:50:18;53865.88;;;-139.68;33.26
10940;BME280;5522;42.696;23.494;2022-09-13T10:52:46;53873.91;;;-139.68;33.38
10940;BME280;5522;42.696;23.494;2022-09-13T10:55:24;53896.03;;;-139.68;33.87
10940;BME280;5522;42.696;23.494;2022-09-13T10:57:52;53851.81;;;-139.68;36.97
10940;BME280;5522;42.696;23.494;2022-09-13T11:00:22;53871.91;;;-139.68;37.49
10940;BME280;5522;42.696;23.494;2022-09-13T11:03:10;53857.84;;;-139.68;38.85
10940;BME280;5522;42.696;23.494;2022-09-13T11:05:43;53871.91;;;-139.68;37.58
10940;BME280;5522;42.696;23.494;2022-09-13T11:08:40;53823.66;;;-139.68;37.32
10940;BME280;5522;42.696;23.494;2022-09-13T11:11:15;53845.78;;;-139.68;37.63
10940;BME280;5522;42.696;23.494;2022-09-13T11:13:54;53855.81;;;-139.68;40.88
10940;BME280;5522;42.696;23.494;2022-09-13T11:16:36;53871.91;;;-139.68;39.45
10940;BME280;5522;42.696;23.494;2022-09-13T11:19:35;53871.91;;;-139.68;40.27
10940;BME280;5522;42.696;23.494;2022-09-13T11:22:22;53841.75;;;-139.68;35.66
10940;BME280;5522;42.696;23.494;2022-09-13T11:25:02;53863.88;;;-139.68;34.52
10940;BME280;5522;42.696;23.494;2022-09-13T11:27:39;53888.00;;;-139.68;37.30
10940;BME280;5522;42.696;23.494;2022-09-13T11:30:15;53849.78;;;-139.68;36.30
10940;BME280;5522;42.696;23.494;2022-09-13T11:33:11;53855.81;;;-139.68;35.98
10940;BME280;5522;42.696;23.494;2022-09-13T11:35:50;53847.78;;;-139.68;35.14
10940;BME280;5522;42.696;23.494;2022-09-13T11:38:34;53867.88;;;-139.68;35.09
10940;BME280;5522;42.696;23.494;2022-09-13T11:41:11;53827.69;;;-139.68;34.99
10940;BME280;5522;42.696;23.494;2022-09-13T11:43:54;53835.72;;;-139.68;36.31
10940;BME280;5522;42.696;23.494;2022-09-13T11:46:31;53871.91;;;-139.68;35.38
10940;BME280;5522;42.696;23.494;2022-09-13T11:49:33;53847.78;;;-139.68;36.09
10940;BME280;5522;42.696;23.494;2022-09-13T11:52:13;53883.97;;;-139.68;35.49
10940;BME280;5522;42.696;23.494;2022-09-13T11:54:53;53831.69;;;-139.68;34.73
10940;BME280;5522;42.696;23.494;2022-09-13T11:57:26;53867.88;;;-139.68;35.58
10940;BME280;5522;42.696;23.494;2022-09-13T11:59:58;53859.84;;;-139.68;36.28
10940;BME280;5522;42.696;23.494;2022-09-13T12:02:33;53851.81;;;-139.68;34.19
10940;BME280;5522;42.696;23.494;2022-09-13T12:05:10;53833.72;;;-139.68;35.49
10940;BME280;5522;42.696;23.494;2022-09-13T12:07:43;53853.81;;;-139.68;35.39
10940;BME280;5522;42.696;23.494;2022-09-13T12:10:16;53851.81;;;-139.68;35.59
10940;BME280;5522;42.696;23.494;2022-09-13T12:12:46;53829.69;;;-139.68;35.59
10940;BME280;5522;42.696;23.494;2022-09-13T12:15:20;53879.94;;;-139.68;34.10
10940;BME280;5522;42.696;23.494;2022-09-13T12:17:49;53867.88;;;-139.68;36.60
10940;BME280;5522;42.696;23.494;2022-09-13T12:20:27;53879.94;;;-139.68;36.77
10940;BME280;5522;42.696;23.494;2022-09-13T12:22:59;53851.81;;;-139.68;36.83
10940;BME280;5522;42.696;23.494;2022-09-13T12:25:38;53900.06;;;-139.68;36.63
10940;BME280;5522;42.696;23.494;2022-09-13T12:28:14;53859.84;;;-139.68;35.65
10940;BME280;5522;42.696;23.494;2022-09-13T12:30:49;53843.75;;;-139.68;36.13
10940;BME280;5522;42.696;23.494;2022-09-13T12:33:18;53839.75;;;-139.68;36.33
10940;BME280;5522;42.696;23.494;2022-09-13T12:35:57;53875.94;;;-139.68;36.57
10940;BME280;5522;42.696;23.494;2022-09-13T12:38:53;53867.88;;;-139.68;36.58
10940;BME280;5522;42.696;23.494;2022-09-13T12:41:35;53871.91;;;-139.68;35.86
10940;BME280;5522;42.696;23.494;2022-09-13T12:44:20;53928.19;;;-139.68;36.55
10940;BME280;5522;42.696;23.494;2022-09-13T12:47:09;53859.84;;;-139.68;36.25
10940;BME280;5522;42.696;23.494;2022-09-13T12:49:53;53883.97;;;-139.68;35.75
10940;BME280;5522;42.696;23.494;2022-09-13T12:52:31;53837.72;;;-139.68;34.32
10940;BME280;5522;42.696;23.494;2022-09-13T12:55:29;53871.91;;;-139.68;34.85
10940;BME280;5522;42.696;23.494;2022-09-13T12:58:15;53823.66;;;-139.68;37.50
10940;BME280;5522;42.696;23.494;2022-09-13T13:00:45;53896.03;;;-139.68;36.15
10940;BME280;5522;42.696;23.494;2022-09-13T13:03:17;53831.69;;;-139.68;36.05
10940;BME280;5522;42.696;23.494;2022-09-13T13:05:47;53879.94;;;-139.68;36.35
10940;BME280;5522;42.696;23.494;2022-09-13T13:08:25;53863.88;;;-139.68;37.25
10940;BME280;5522;42.696;23.494;2022-09-13T13:11:02;53863.88;;;-139.68;36.91
10940;BME280;5522;42.696;23.494;2022-09-13T13:13:34;53900.06;;;-139.68;37.92